Time,TemperatureF,DewpointF,PressureIn,WindDirection,WindDirectionDegrees,WindSpeedMPH,WindSpeedGustMPH,Humidity,HourlyPrecipIn,Conditions,Clouds,dailyrainin,SoftwareType,DateUTC
2013-01-29 00:00:00,28.9,26.0,30.01,ESE,113,0.0,2.0,89,0.00,CLR,CLR,0.00,WeatherDisplay:10.37,2013-01-29 05:00:00,
2013-01-29 00:01:00,28.8,26.0,30.01,ESE,113,0.1,2.3,89,0.00,CLR,,0.00,WeatherDisplay:10.37,2013-01-29 05:01:00,
2013-01-29 00:04:00,28.8,26.0,30.01,North,0,1.8,2.3,89,0.00,CLR,,0.00,WeatherDisplay:10.37,2013-01-29 05:04:00,
2013-01-29 00:09:00,28.7,25.9,30.01,North,0,0.0,2.0,89,0.00,CLR,,0.00,WeatherDisplay:10.37,2013-01-29 05:09:00,
2013-01-29 00:14:00,28.6,25.5,30.01,NNW,335,1.3,3.5,88,0.00,CLR,,0.00,WeatherDisplay:10.37,2013-01-29 05:14:00,
2013-01-29 00:19:00,28.5,25.4,30.01,NNW,335,1.0,3.0,88,0.00,CLR,,0.00,WeatherDisplay:10.37,2013-01-29 05:19:00,
2013-01-29 00:25:00,28.4,25.3,30.02,North,0,1.9,3.5,88,0.00,CLR,,0.00,WeatherDisplay:10.37,2013-01-29 05:25:00,
2013-01-29 00:30:00,28.3,25.2,30.02,North,1,1.8,3.5,88,0.00,CLR,,0.00,WeatherDisplay:10.37,2013-01-29 05:30:00,
2013-01-29 00:35:00,28.3,25.2,30.01,NNE,30,1.8,2.3,88,0.00,CLR,,0.00,WeatherDisplay:10.37,2013-01-29 05:35:00,
2013-01-29 00:40:00,28.2,25.1,30.01,NNE,26,3.0,5.0,88,0.00,CLR,,0.00,WeatherDisplay:10.37,2013-01-29 05:40:00,
2013-01-29 00:45:00,28.2,25.1,30.01,North,357,1.0,4.0,88,0.00,CLR,CLR,0.00,WeatherDisplay:10.37,2013-01-29 05:45:00,
2013-01-29 00:50:00,28.2,25.1,30.01,NNW,346,1.0,3.0,88,0.00,CLR,CLR,0.00,WeatherDisplay:10.37,2013-01-29 05:50:00,
2013-01-29 00:55:00,28.2,25.1,30.01,North,349,2.0,3.0,88,0.00,CLR,CLR,0.00,WeatherDisplay:10.37,2013-01-29 05:55:00,
2013-01-29 01:00:00,28.2,25.1,30.01,North,3,0.5,1.2,88,0.00,CLR,,0.00,WeatherDisplay:10.37,2013-01-29 06:00:00,
2013-01-29 01:06:00,28.2,25.1,30.02,North,3,0.1,2.3,88,0.00,CLR,,0.00,WeatherDisplay:10.37,2013-01-29 06:06:00,
2013-01-29 01:11:00,28.2,25.1,30.02,North,3,0.0,0.0,88,0.00,CLR,,0.00,WeatherDisplay:10.37,2013-01-29 06:11:00,
2013-01-29 01:16:00,28.2,25.1,30.02,NNW,344,2.0,3.5,88,0.00,CLR,,0.00,WeatherDisplay:10.37,2013-01-29 06:16:00,
2013-01-29 01:21:00,28.3,25.2,30.02,NNW,329,2.2,3.5,88,0.00,CLR,,0.00,WeatherDisplay:10.37,2013-01-29 06:21:00,
2013-01-29 01:26:00,28.2,25.4,30.03,NW,326,1.4,3.5,89,0.00,CLR,,0.00,WeatherDisplay:10.37,2013-01-29 06:26:00,
2013-01-29 01:31:00,28.3,25.5,30.03,NNW,348,2.3,3.5,89,0.00,CLR,,0.00,WeatherDisplay:10.37,2013-01-29 06:31:00,
2013-01-29 01:36:00,28.3,25.5,30.03,NNW,348,0.6,2.3,89,0.00,CLR,,0.00,WeatherDisplay:10.37,2013-01-29 06:36:00,
2013-01-29 01:42:00,28.3,25.5,30.03,NNW,328,1.5,3.5,89,0.00,CLR,,0.00,WeatherDisplay:10.37,2013-01-29 06:42:00,
2013-01-29 01:47:00,28.2,25.4,30.03,North,0,1.4,3.5,89,0.00,CLR,,0.00,WeatherDisplay:10.37,2013-01-29 06:47:00,
2013-01-29 01:52:00,28.1,25.3,30.03,NNW,346,2.4,3.5,89,0.00,CLR,,0.00,WeatherDisplay:10.37,2013-01-29 06:52:00,
2013-01-29 01:57:00,28.0,25.2,30.04,WNW,298,2.3,3.5,89,0.00,CLR,,0.00,WeatherDisplay:10.37,2013-01-29 06:57:00,
2013-01-29 02:03:00,28.0,25.2,30.04,NW,314,2.0,4.0,89,0.00,CLR,,0.00,WeatherDisplay:10.37,2013-01-29 07:03:00,
2013-01-29 02:08:00,27.9,24.8,30.03,NW,325,0.8,3.5,88,0.00,CLR,,0.00,WeatherDisplay:10.37,2013-01-29 07:08:00,
2013-01-29 02:13:00,27.9,25.1,30.03,NNW,347,1.5,3.5,89,0.00,CLR,,0.00,WeatherDisplay:10.37,2013-01-29 07:13:00,
2013-01-29 02:18:00,27.8,24.7,30.03,North,0,1.9,3.0,88,0.00,CLR,,0.00,WeatherDisplay:10.37,2013-01-29 07:18:00,
2013-01-29 02:23:00,27.8,24.7,30.04,North,351,0.2,1.2,88,0.00,CLR,,0.00,WeatherDisplay:10.37,2013-01-29 07:23:00,
2013-01-29 02:28:00,27.8,24.7,30.03,North,0,1.8,3.5,88,0.00,CLR,,0.00,WeatherDisplay:10.37,2013-01-29 07:28:00,
2013-01-29 02:34:00,27.8,25.0,30.04,North,0,1.0,3.0,89,0.00,CLR,,0.00,WeatherDisplay:10.37,2013-01-29 07:34:00,
2013-01-29 02:39:00,27.8,25.0,30.04,NNW,332,0.7,2.3,89,0.00,CLR,,0.00,WeatherDisplay:10.37,2013-01-29 07:39:00,
2013-01-29 02:44:00,27.7,24.6,30.04,NW,313,1.2,3.5,88,0.00,CLR,,0.00,WeatherDisplay:10.37,2013-01-29 07:44:00,
2013-01-29 02:49:00,27.7,24.6,30.04,NW,318,1.6,3.5,88,0.00,CLR,,0.00,WeatherDisplay:10.37,2013-01-29 07:49:00,
2013-01-29 02:55:00,27.6,24.5,30.04,North,354,2.1,3.0,88,0.00,CLR,,0.00,WeatherDisplay:10.37,2013-01-29 07:55:00,
2013-01-29 03:00:00,27.6,24.5,30.04,NW,316,1.1,2.3,88,0.00,CLR,,0.00,WeatherDisplay:10.37,2013-01-29 08:00:00,
2013-01-29 03:05:00,27.5,24.4,30.04,NNW,344,2.3,3.5,88,0.00,CLR,,0.00,WeatherDisplay:10.37,2013-01-29 08:05:00,
2013-01-29 03:10:00,27.5,24.4,30.04,North,351,1.0,3.0,88,0.00,CLR,CLR,0.00,WeatherDisplay:10.37,2013-01-29 08:10:00,
2013-01-29 03:15:00,27.5,24.4,30.04,NNW,344,1.9,3.5,88,0.00,CLR,,0.00,WeatherDisplay:10.37,2013-01-29 08:15:00,
2013-01-29 03:21:00,27.5,24.4,30.05,NW,314,2.5,3.5,88,0.00,CLR,,0.00,WeatherDisplay:10.37,2013-01-29 08:21:00,
2013-01-29 03:26:00,27.4,24.3,30.05,NW,314,3.6,4.0,88,0.00,CLR,,0.00,WeatherDisplay:10.37,2013-01-29 08:26:00,
2013-01-29 03:31:00,27.2,23.8,30.05,North,0,2.1,3.5,87,0.00,CLR,,0.00,WeatherDisplay:10.37,2013-01-29 08:31:00,
2013-01-29 03:36:00,27.1,23.7,30.05,NW,310,2.0,3.5,87,0.00,CLR,,0.00,WeatherDisplay:10.37,2013-01-29 08:36:00,
2013-01-29 03:42:00,27.0,23.6,30.05,NNW,341,0.9,3.5,87,0.00,CLR,,0.00,WeatherDisplay:10.37,2013-01-29 08:42:00,
2013-01-29 03:47:00,27.0,23.6,30.05,WNW,296,0.9,3.5,87,0.00,CLR,,0.00,WeatherDisplay:10.37,2013-01-29 08:47:00,
2013-01-29 03:52:00,27.0,23.6,30.05,North,357,2.7,5.0,87,0.00,CLR,,0.00,WeatherDisplay:10.37,2013-01-29 08:52:00,
2013-01-29 03:57:00,26.9,23.5,30.05,North,7,2.0,4.0,87,0.00,CLR,,0.00,WeatherDisplay:10.37,2013-01-29 08:57:00,
2013-01-29 04:03:00,26.9,23.5,30.05,NW,324,3.5,5.8,87,0.00,CLR,,0.00,WeatherDisplay:10.37,2013-01-29 09:03:00,
2013-01-29 04:08:00,26.8,23.2,30.05,NW,324,2.2,3.5,86,0.00,CLR,,0.00,WeatherDisplay:10.37,2013-01-29 09:08:00,
2013-01-29 04:13:00,26.8,23.4,30.05,NW,324,2.1,3.5,87,0.00,CLR,,0.00,WeatherDisplay:10.37,2013-01-29 09:13:00,
2013-01-29 04:18:00,26.8,23.4,30.05,NNW,343,1.9,3.0,87,0.00,CLR,,0.00,WeatherDisplay:10.37,2013-01-29 09:18:00,
2013-01-29 04:23:00,26.7,23.4,30.05,NNW,338,2.6,4.6,87,0.00,CLR,,0.00,WeatherDisplay:10.37,2013-01-29 09:23:00,
2013-01-29 04:28:00,26.7,23.4,30.06,NW,324,2.5,3.5,87,0.00,CLR,,0.00,WeatherDisplay:10.37,2013-01-29 09:28:00,
2013-01-29 04:34:00,26.7,23.4,30.06,North,8,2.5,4.0,87,0.00,CLR,,0.00,WeatherDisplay:10.37,2013-01-29 09:34:00,
2013-01-29 04:39:00,26.7,23.4,30.06,North,355,2.1,3.5,87,0.00,CLR,,0.00,WeatherDisplay:10.37,2013-01-29 09:39:00,
2013-01-29 04:44:00,26.6,23.3,30.06,NW,318,2.2,4.0,87,0.00,CLR,,0.00,WeatherDisplay:10.37,2013-01-29 09:44:00,
2013-01-29 04:49:00,26.6,23.3,30.06,NW,324,3.0,3.5,87,0.00,CLR,,0.00,WeatherDisplay:10.37,2013-01-29 09:49:00,
2013-01-29 04:55:00,26.6,23.3,30.07,NW,324,2.3,3.5,87,0.00,CLR,,0.00,WeatherDisplay:10.37,2013-01-29 09:55:00,
2013-01-29 05:00:00,26.5,22.9,30.07,NNW,348,1.5,3.0,86,0.00,CLR,,0.00,WeatherDisplay:10.37,2013-01-29 10:00:00,
2013-01-29 05:05:00,26.5,23.2,30.07,NNW,330,2.5,4.0,87,0.00,CLR,,0.00,WeatherDisplay:10.37,2013-01-29 10:05:00,
2013-01-29 05:10:00,26.5,23.1,30.07,NNW,344,2.0,6.0,87,0.00,CLR,CLR,0.00,WeatherDisplay:10.37,2013-01-29 10:10:00,
2013-01-29 05:15:00,26.4,23.1,30.07,NNW,335,1.0,5.0,87,0.00,CLR,CLR,0.00,WeatherDisplay:10.37,2013-01-29 10:15:00,
2013-01-29 05:20:00,26.4,23.1,30.07,NW,325,1.0,4.0,87,0.00,CLR,CLR,0.00,WeatherDisplay:10.37,2013-01-29 10:20:00,
2013-01-29 05:26:00,26.4,22.8,30.07,NW,310,1.2,3.0,86,0.00,CLR,,0.00,WeatherDisplay:10.37,2013-01-29 10:26:00,
2013-01-29 05:31:00,26.4,22.8,30.07,North,1,0.5,2.3,86,0.00,CLR,,0.00,WeatherDisplay:10.37,2013-01-29 10:31:00,
2013-01-29 05:36:00,26.4,22.8,30.07,NNW,340,1.7,2.3,86,0.00,CLR,,0.00,WeatherDisplay:10.37,2013-01-29 10:36:00,
2013-01-29 05:41:00,26.3,22.7,30.07,NW,315,2.0,3.5,86,0.00,CLR,,0.00,WeatherDisplay:10.37,2013-01-29 10:41:00,
2013-01-29 05:46:00,26.2,22.9,30.08,North,0,1.4,2.3,87,0.00,CLR,,0.00,WeatherDisplay:10.37,2013-01-29 10:46:00,
2013-01-29 05:52:00,26.2,22.9,30.08,NW,322,2.0,3.5,87,0.00,CLR,,0.00,WeatherDisplay:10.37,2013-01-29 10:52:00,
2013-01-29 05:57:00,26.1,22.8,30.08,NW,309,2.8,3.5,87,0.00,CLR,,0.00,WeatherDisplay:10.37,2013-01-29 10:57:00,
2013-01-29 06:02:00,26.2,22.9,30.08,North,0,3.0,5.8,87,0.00,CLR,,0.00,WeatherDisplay:10.37,2013-01-29 11:02:00,
2013-01-29 06:07:00,26.3,23.0,30.08,NW,307,2.5,5.8,87,0.00,CLR,,0.00,WeatherDisplay:10.37,2013-01-29 11:07:00,
2013-01-29 06:13:00,26.2,22.6,30.09,North,0,2.9,5.0,86,0.00,CLR,,0.00,WeatherDisplay:10.37,2013-01-29 11:13:00,
2013-01-29 06:18:00,26.2,22.6,30.09,NNW,337,2.5,3.5,86,0.00,CLR,,0.00,WeatherDisplay:10.37,2013-01-29 11:18:00,
2013-01-29 06:23:00,26.2,22.6,30.09,WNW,289,2.1,3.5,86,0.00,CLR,,0.00,WeatherDisplay:10.37,2013-01-29 11:23:00,
2013-01-29 06:28:00,26.3,22.7,30.09,NW,324,2.6,4.0,86,0.00,CLR,,0.00,WeatherDisplay:10.37,2013-01-29 11:28:00,
2013-01-29 06:33:00,26.4,22.8,30.09,North,0,1.1,2.3,86,0.00,CLR,,0.00,WeatherDisplay:10.37,2013-01-29 11:33:00,
2013-01-29 06:39:00,26.4,22.8,30.10,North,0,1.9,4.0,86,0.00,CLR,,0.00,WeatherDisplay:10.37,2013-01-29 11:39:00,
2013-01-29 06:44:00,26.4,22.8,30.10,NNW,337,2.4,4.6,86,0.00,CLR,,0.00,WeatherDisplay:10.37,2013-01-29 11:44:00,
2013-01-29 06:49:00,26.4,22.8,30.10,NNW,345,2.0,4.0,86,0.00,CLR,,0.00,WeatherDisplay:10.37,2013-01-29 11:49:00,
2013-01-29 06:55:00,26.4,22.8,30.10,NNW,335,1.3,3.5,86,0.00,CLR,,0.00,WeatherDisplay:10.37,2013-01-29 11:55:00,
2013-01-29 07:00:00,26.4,22.8,30.11,NNW,335,1.8,3.5,86,0.00,CLR,,0.00,WeatherDisplay:10.37,2013-01-29 12:00:00,
2013-01-29 07:05:00,26.5,22.9,30.11,NNW,335,1.7,3.5,86,0.00,CLR,,0.00,WeatherDisplay:10.37,2013-01-29 12:05:00,
2013-01-29 07:10:00,26.6,23.0,30.11,NNW,347,0.0,3.0,86,0.00,CLR,CLR,0.00,WeatherDisplay:10.37,2013-01-29 12:10:00,
2013-01-29 07:15:00,26.6,23.0,30.11,NNW,331,1.6,3.5,86,0.00,CLR,,0.00,WeatherDisplay:10.37,2013-01-29 12:15:00,
2013-01-29 07:20:00,26.7,22.8,30.11,NNW,340,2.0,4.0,85,0.00,CLR,CLR,0.00,WeatherDisplay:10.37,2013-01-29 12:20:00,
2013-01-29 07:25:00,26.7,22.8,30.12,NNW,334,1.0,3.0,85,0.00,CLR,CLR,0.00,WeatherDisplay:10.37,2013-01-29 12:25:00,
2013-01-29 07:30:00,26.7,22.8,30.13,NNW,330,2.0,4.0,85,0.00,CLR,CLR,0.00,WeatherDisplay:10.37,2013-01-29 12:30:00,
2013-01-29 07:35:00,26.8,22.9,30.13,NNW,342,1.0,3.0,85,0.00,CLR,CLR,0.00,WeatherDisplay:10.37,2013-01-29 12:35:00,
2013-01-29 07:40:00,26.9,23.0,30.13,NW,313,1.9,3.5,85,0.00,CLR,,0.00,WeatherDisplay:10.37,2013-01-29 12:40:00,
2013-01-29 07:45:00,27.0,23.1,30.14,NNW,328,1.8,3.5,85,0.00,CLR,,0.00,WeatherDisplay:10.37,2013-01-29 12:45:00,
2013-01-29 07:51:00,27.1,23.2,30.14,NW,314,1.8,3.5,85,0.00,CLR,,0.00,WeatherDisplay:10.37,2013-01-29 12:51:00,
2013-01-29 07:56:00,27.1,23.2,30.13,NW,314,1.1,2.3,85,0.00,CLR,,0.00,WeatherDisplay:10.37,2013-01-29 12:56:00,
2013-01-29 08:01:00,27.3,23.4,30.14,NW,308,1.1,2.3,85,0.00,CLR,,0.00,WeatherDisplay:10.37,2013-01-29 13:01:00,
2013-01-29 08:06:00,27.4,23.5,30.14,NW,308,2.6,3.0,85,0.00,CLR,,0.00,WeatherDisplay:10.37,2013-01-29 13:06:00,
2013-01-29 08:11:00,27.4,23.2,30.14,NW,315,1.4,3.5,84,0.00,CLR,,0.00,WeatherDisplay:10.37,2013-01-29 13:11:00,
2013-01-29 08:17:00,27.6,23.4,30.14,NW,315,2.5,5.0,84,0.00,CLR,,0.00,WeatherDisplay:10.37,2013-01-29 13:17:00,
2013-01-29 08:22:00,27.8,23.3,30.14,NW,317,3.5,4.6,83,0.00,CLR,,0.00,WeatherDisplay:10.37,2013-01-29 13:22:00,
2013-01-29 08:27:00,27.9,23.4,30.14,NW,318,1.7,3.5,83,0.00,CLR,,0.00,WeatherDisplay:10.37,2013-01-29 13:27:00,
2013-01-29 08:33:00,28.0,23.2,30.15,NW,308,1.3,3.5,82,0.00,CLR,,0.00,WeatherDisplay:10.37,2013-01-29 13:33:00,
2013-01-29 08:38:00,28.1,23.3,30.15,NNW,331,2.2,3.5,82,0.00,CLR,,0.00,WeatherDisplay:10.37,2013-01-29 13:38:00,
2013-01-29 08:43:00,28.3,23.8,30.15,NNW,329,1.8,3.0,83,0.00,CLR,,0.00,WeatherDisplay:10.37,2013-01-29 13:43:00,
2013-01-29 08:48:00,28.4,23.6,30.15,NW,314,1.5,4.0,82,0.00,CLR,,0.00,WeatherDisplay:10.37,2013-01-29 13:48:00,
2013-01-29 08:53:00,28.6,23.8,30.15,NNW,327,1.5,2.3,82,0.00,CLR,,0.00,WeatherDisplay:10.37,2013-01-29 13:53:00,
2013-01-29 08:58:00,28.7,23.9,30.15,NW,326,0.3,2.3,82,0.00,CLR,,0.00,WeatherDisplay:10.37,2013-01-29 13:58:00,
2013-01-29 09:03:00,29.0,24.2,30.15,WNW,296,1.8,3.5,82,0.00,CLR,,0.00,WeatherDisplay:10.37,2013-01-29 14:03:00,
2013-01-29 09:09:00,29.2,24.1,30.16,WNW,296,1.0,2.3,81,0.00,CLR,,0.00,WeatherDisplay:10.37,2013-01-29 14:09:00,
2013-01-29 09:14:00,29.5,24.4,30.16,WNW,296,0.0,0.0,81,0.00,CLR,,0.00,WeatherDisplay:10.37,2013-01-29 14:14:00,
2013-01-29 09:19:00,29.8,24.7,30.16,WNW,296,0.0,2.3,81,0.00,CLR,,0.00,WeatherDisplay:10.37,2013-01-29 14:19:00,
2013-01-29 09:24:00,30.1,24.7,30.16,WNW,296,1.1,2.3,80,0.00,CLR,,0.00,WeatherDisplay:10.37,2013-01-29 14:24:00,
2013-01-29 09:29:00,30.3,24.9,30.16,WNW,296,0.9,3.5,80,0.00,CLR,,0.00,WeatherDisplay:10.37,2013-01-29 14:29:00,
2013-01-29 09:34:00,30.6,24.9,30.16,WNW,296,1.8,3.5,79,0.00,CLR,,0.00,WeatherDisplay:10.37,2013-01-29 14:34:00,
2013-01-29 09:39:00,30.9,25.2,30.15,WNW,296,0.2,2.3,79,0.00,CLR,,0.00,WeatherDisplay:10.37,2013-01-29 14:39:00,
2013-01-29 09:44:00,31.3,25.5,30.15,North,352,0.9,3.5,79,0.00,CLR,,0.00,WeatherDisplay:10.37,2013-01-29 14:44:00,
2013-01-29 09:50:00,31.6,25.5,30.16,NNW,341,3.1,5.8,78,0.00,CLR,,0.00,WeatherDisplay:10.37,2013-01-29 14:50:00,
2013-01-29 09:55:00,31.5,25.4,30.16,North,359,1.9,2.3,78,0.00,CLR,,0.00,WeatherDisplay:10.37,2013-01-29 14:55:00,
2013-01-29 10:00:00,31.7,25.6,30.16,NW,311,2.1,3.5,78,0.00,CLR,,0.00,WeatherDisplay:10.37,2013-01-29 15:00:00,
2013-01-29 10:05:00,31.8,25.7,30.16,NW,311,0.9,3.5,78,0.00,CLR,,0.00,WeatherDisplay:10.37,2013-01-29 15:05:00,
2013-01-29 10:10:00,32.0,25.6,30.16,NW,311,1.0,4.0,77,0.00,CLR,CLR,0.00,WeatherDisplay:10.37,2013-01-29 15:10:00,
2013-01-29 10:15:00,32.0,25.6,30.16,NW,315,2.0,3.0,77,0.00,CLR,CLR,0.00,WeatherDisplay:10.37,2013-01-29 15:15:00,
2013-01-29 10:20:00,31.9,25.5,30.16,NNW,329,2.0,4.0,77,0.00,CLR,CLR,0.00,WeatherDisplay:10.37,2013-01-29 15:20:00,
2013-01-29 10:25:00,31.9,25.8,30.17,NW,324,1.3,2.3,78,0.00,CLR,,0.00,WeatherDisplay:10.37,2013-01-29 15:25:00,
2013-01-29 10:31:00,32.4,26.3,30.17,North,0,1.8,3.5,78,0.00,CLR,,0.00,WeatherDisplay:10.37,2013-01-29 15:31:00,
2013-01-29 10:36:00,32.7,26.3,30.17,NW,318,1.1,2.3,77,0.00,CLR,,0.00,WeatherDisplay:10.37,2013-01-29 15:36:00,
2013-01-29 10:41:00,33.2,26.8,30.17,NW,318,0.7,2.0,77,0.00,CLR,,0.00,WeatherDisplay:10.37,2013-01-29 15:41:00,
2013-01-29 10:46:00,33.6,27.2,30.17,North,0,1.9,3.5,77,0.00,CLR,,0.00,WeatherDisplay:10.37,2013-01-29 15:46:00,
2013-01-29 10:51:00,34.1,27.3,30.18,North,0,0.4,2.3,76,0.00,CLR,,0.00,WeatherDisplay:10.37,2013-01-29 15:51:00,
2013-01-29 10:56:00,34.3,27.2,30.17,North,0,1.8,3.5,75,0.00,CLR,,0.00,WeatherDisplay:10.37,2013-01-29 15:56:00,
2013-01-29 11:01:00,34.6,27.8,30.18,North,0,2.4,3.5,76,0.00,CLR,,0.00,WeatherDisplay:10.37,2013-01-29 16:01:00,
2013-01-29 11:07:00,35.0,28.2,30.17,North,0,2.3,3.5,76,0.00,CLR,,0.00,WeatherDisplay:10.37,2013-01-29 16:07:00,
2013-01-29 11:12:00,35.2,28.1,30.18,North,0,1.9,3.5,75,0.00,CLR,,0.00,WeatherDisplay:10.37,2013-01-29 16:12:00,
2013-01-29 11:17:00,35.6,28.5,30.17,North,349,1.7,3.5,75,0.00,CLR,,0.00,WeatherDisplay:10.37,2013-01-29 16:17:00,
2013-01-29 11:22:00,35.8,28.3,30.17,North,0,2.5,4.6,74,0.00,CLR,,0.00,WeatherDisplay:10.37,2013-01-29 16:22:00,
2013-01-29 11:27:00,35.7,27.9,30.17,North,351,2.1,3.5,73,0.00,CLR,,0.00,WeatherDisplay:10.37,2013-01-29 16:27:00,
2013-01-29 11:32:00,35.9,28.4,30.17,North,0,1.6,4.6,74,0.00,CLR,,0.00,WeatherDisplay:10.37,2013-01-29 16:32:00,
2013-01-29 11:37:00,35.9,28.4,30.17,North,0,2.7,3.5,74,0.00,CLR,,0.00,WeatherDisplay:10.37,2013-01-29 16:37:00,
2013-01-29 11:43:00,36.0,28.2,30.17,NW,319,2.6,3.5,73,0.00,CLR,,0.00,WeatherDisplay:10.37,2013-01-29 16:43:00,
2013-01-29 11:48:00,35.7,28.6,30.17,NW,312,2.8,4.6,75,0.00,CLR,,0.00,WeatherDisplay:10.37,2013-01-29 16:48:00,
2013-01-29 11:53:00,35.4,28.3,30.17,NW,319,1.5,3.5,75,0.00,CLR,,0.00,WeatherDisplay:10.37,2013-01-29 16:53:00,
2013-01-29 11:59:00,35.6,28.8,30.17,North,0,1.1,3.5,76,0.00,CLR,,0.00,WeatherDisplay:10.37,2013-01-29 16:59:00,
2013-01-29 12:04:00,36.0,29.2,30.17,NW,311,1.3,3.5,76,0.00,CLR,,0.00,WeatherDisplay:10.37,2013-01-29 17:04:00,
2013-01-29 12:09:00,36.1,28.9,30.16,NNW,343,0.5,3.0,75,0.00,CLR,,0.00,WeatherDisplay:10.37,2013-01-29 17:09:00,
2013-01-29 12:14:00,36.4,29.2,30.16,North,9,2.4,3.5,75,0.00,CLR,,0.00,WeatherDisplay:10.37,2013-01-29 17:14:00,
2013-01-29 12:20:00,36.6,29.4,30.16,North,11,2.4,3.5,75,0.00,CLR,,0.00,WeatherDisplay:10.37,2013-01-29 17:20:00,
2013-01-29 12:25:00,36.7,29.2,30.15,North,10,0.9,2.3,74,0.00,CLR,,0.00,WeatherDisplay:10.37,2013-01-29 17:25:00,
2013-01-29 12:30:00,36.7,29.5,30.16,North,3,2.0,5.0,75,0.00,RA,RA,0.01,WeatherDisplay:10.37,2013-01-29 17:30:00,
2013-01-29 12:35:00,36.7,29.5,30.16,NNW,348,0.0,4.0,75,0.00,,,0.01,WeatherDisplay:10.37,2013-01-29 17:35:00,
2013-01-29 12:40:00,37.0,29.8,30.16,NNW,348,1.0,3.0,75,0.01,RA,RA,0.02,WeatherDisplay:10.37,2013-01-29 17:40:00,
2013-01-29 12:45:00,37.0,29.5,30.16,North,351,2.0,3.0,74,0.00,RA,RA,0.02,WeatherDisplay:10.37,2013-01-29 17:45:00,
2013-01-29 12:50:00,36.8,33.3,30.16,NNW,338,1.8,4.0,87,0.02,,,0.02,WeatherDisplay:10.37,2013-01-29 17:50:00,
2013-01-29 12:55:00,36.7,34.3,30.16,NNW,343,1.0,4.0,91,0.00,CLR,CLR,0.02,WeatherDisplay:10.37,2013-01-29 17:55:00,
2013-01-29 13:00:00,36.4,34.8,30.16,NNW,345,1.7,2.3,94,0.02,CLR,,0.02,WeatherDisplay:10.37,2013-01-29 18:00:00,
2013-01-29 13:05:00,36.4,34.9,30.16,NNW,348,1.0,4.0,94,0.00,CLR,CLR,0.02,WeatherDisplay:10.37,2013-01-29 18:05:00,
2013-01-29 13:10:00,36.7,35.7,30.15,North,353,1.0,2.0,96,0.00,RA,RA,0.03,WeatherDisplay:10.37,2013-01-29 18:10:00,
2013-01-29 13:15:00,36.7,35.7,30.15,North,351,2.0,4.0,96,0.00,RA,RA,0.03,WeatherDisplay:10.37,2013-01-29 18:15:00,
2013-01-29 13:20:00,37.1,36.6,30.15,North,352,1.0,3.0,98,0.00,RA,RA,0.04,WeatherDisplay:10.37,2013-01-29 18:20:00,
2013-01-29 13:25:00,37.1,36.3,30.15,NNW,345,1.9,3.5,97,0.03,RA,,0.04,WeatherDisplay:10.37,2013-01-29 18:25:00,
2013-01-29 13:30:00,37.2,36.7,30.15,North,353,0.0,3.0,98,0.00,,,0.04,WeatherDisplay:10.37,2013-01-29 18:30:00,
2013-01-29 13:35:00,37.9,37.9,30.15,North,358,0.0,2.0,100,0.00,CLR,CLR,0.04,WeatherDisplay:10.37,2013-01-29 18:35:00,
2013-01-29 13:40:00,38.2,38.2,30.15,North,0,1.0,3.0,100,0.00,CLR,CLR,0.04,WeatherDisplay:10.37,2013-01-29 18:40:00,
2013-01-29 13:45:00,38.2,37.7,30.15,North,0,0.0,3.0,98,0.00,RA,RA,0.05,WeatherDisplay:10.37,2013-01-29 18:45:00,
2013-01-29 13:50:00,38.3,38.0,30.15,North,0,2.0,5.0,99,0.00,RA,RA,0.05,WeatherDisplay:10.37,2013-01-29 18:50:00,
2013-01-29 13:55:00,38.1,37.8,30.15,North,7,1.0,4.0,99,0.00,RA,RA,0.06,WeatherDisplay:10.37,2013-01-29 18:55:00,
2013-01-29 14:00:00,37.9,37.6,30.15,NNE,13,0.0,3.0,99,0.00,RA,RA,0.06,WeatherDisplay:10.37,2013-01-29 19:00:00,
2013-01-29 14:05:00,37.8,37.3,30.15,NNE,14,1.0,2.0,98,0.00,,,0.06,WeatherDisplay:10.37,2013-01-29 19:05:00,
2013-01-29 14:10:00,37.9,37.6,30.16,NNE,14,0.0,2.0,99,0.00,CLR,CLR,0.06,WeatherDisplay:10.37,2013-01-29 19:10:00,
2013-01-29 14:16:00,37.8,37.5,30.16,NNE,14,0.0,0.0,99,0.03,CLR,,0.06,WeatherDisplay:10.37,2013-01-29 19:16:00,
2013-01-29 14:21:00,37.7,37.4,30.16,NNE,14,0.3,1.2,99,0.02,CLR,,0.07,WeatherDisplay:10.37,2013-01-29 19:21:00,
2013-01-29 14:26:00,37.2,36.9,30.16,North,3,0.5,1.2,99,0.03,RA,,0.07,WeatherDisplay:10.37,2013-01-29 19:26:00,
2013-01-29 14:31:00,37.0,36.7,30.15,North,3,0.0,0.0,99,0.03,,,0.07,WeatherDisplay:10.37,2013-01-29 19:31:00,
2013-01-29 14:36:00,36.9,36.6,30.16,North,3,1.0,2.3,99,0.03,CLR,,0.07,WeatherDisplay:10.37,2013-01-29 19:36:00,
2013-01-29 14:41:00,36.8,36.5,30.15,North,3,0.0,0.0,99,0.03,CLR,,0.07,WeatherDisplay:10.37,2013-01-29 19:41:00,
2013-01-29 14:47:00,36.8,36.8,30.16,North,3,0.0,1.2,100,0.03,RA,,0.08,WeatherDisplay:10.37,2013-01-29 19:47:00,
2013-01-29 14:52:00,36.6,36.6,30.16,North,3,0.1,1.2,100,0.03,RA,,0.08,WeatherDisplay:10.37,2013-01-29 19:52:00,
2013-01-29 14:57:00,36.6,36.6,30.16,NNW,332,1.5,3.5,100,0.02,CLR,,0.08,WeatherDisplay:10.37,2013-01-29 19:57:00,
2013-01-29 15:03:00,36.5,36.5,30.17,NNW,332,0.5,2.0,100,0.02,CLR,,0.08,WeatherDisplay:10.37,2013-01-29 20:03:00,
2013-01-29 15:06:00,36.4,36.4,30.17,NNW,332,0.7,2.3,100,0.02,CLR,,0.08,WeatherDisplay:10.37,2013-01-29 20:06:00,
2013-01-29 15:11:00,36.4,36.4,30.17,NNW,332,0.1,1.2,100,0.02,CLR,,0.08,WeatherDisplay:10.37,2013-01-29 20:11:00,
2013-01-29 15:16:00,36.3,36.3,30.16,NNW,332,0.0,0.0,100,0.02,CLR,,0.08,WeatherDisplay:10.37,2013-01-29 20:16:00,
2013-01-29 15:21:00,36.4,36.4,30.16,NNW,332,0.0,0.0,100,0.01,CLR,,0.08,WeatherDisplay:10.37,2013-01-29 20:21:00,
2013-01-29 15:27:00,36.3,36.3,30.16,NNW,332,0.0,0.0,100,0.01,CLR,,0.08,WeatherDisplay:10.37,2013-01-29 20:27:00,
2013-01-29 15:32:00,36.3,36.3,30.17,NNW,332,0.5,1.2,100,0.01,CLR,,0.08,WeatherDisplay:10.37,2013-01-29 20:32:00,
2013-01-29 15:37:00,36.2,36.2,30.17,NNW,332,0.0,0.0,100,0.02,RA,,0.09,WeatherDisplay:10.37,2013-01-29 20:37:00,
2013-01-29 15:42:00,36.1,36.1,30.16,NNW,332,0.0,0.0,100,0.02,RA,,0.09,WeatherDisplay:10.37,2013-01-29 20:42:00,
2013-01-29 15:47:00,36.1,36.1,30.16,NNW,332,0.1,1.2,100,0.01,,,0.09,WeatherDisplay:10.37,2013-01-29 20:47:00,
2013-01-29 15:52:00,36.0,36.0,30.16,NNW,332,0.0,0.0,100,0.01,CLR,,0.09,WeatherDisplay:10.37,2013-01-29 20:52:00,
2013-01-29 15:57:00,35.9,35.9,30.16,NNW,332,0.0,0.0,100,0.01,CLR,,0.09,WeatherDisplay:10.37,2013-01-29 20:57:00,
2013-01-29 16:03:00,35.7,35.7,30.16,NNW,332,0.0,0.0,100,0.01,CLR,,0.09,WeatherDisplay:10.37,2013-01-29 21:03:00,
2013-01-29 16:08:00,35.7,35.7,30.16,NNW,332,0.0,0.0,100,0.01,CLR,,0.09,WeatherDisplay:10.37,2013-01-29 21:08:00,
2013-01-29 16:13:00,35.6,35.6,30.16,NNW,332,0.0,0.0,100,0.01,CLR,,0.09,WeatherDisplay:10.37,2013-01-29 21:13:00,
2013-01-29 16:18:00,35.6,35.6,30.16,NNW,332,0.0,0.0,100,0.02,RA,,0.10,WeatherDisplay:10.37,2013-01-29 21:18:00,
2013-01-29 16:23:00,35.4,35.4,30.16,NNW,332,0.0,0.0,100,0.02,RA,,0.10,WeatherDisplay:10.37,2013-01-29 21:23:00,
2013-01-29 16:28:00,35.3,35.3,30.16,NNW,332,0.0,0.0,100,0.02,,,0.10,WeatherDisplay:10.37,2013-01-29 21:28:00,
2013-01-29 16:34:00,35.2,35.2,30.16,NNW,332,0.0,0.0,100,0.02,CLR,,0.10,WeatherDisplay:10.37,2013-01-29 21:34:00,
2013-01-29 16:39:00,35.1,35.1,30.16,NNW,332,0.0,0.0,100,0.01,CLR,,0.10,WeatherDisplay:10.37,2013-01-29 21:39:00,
2013-01-29 16:44:00,35.0,35.0,30.17,NNW,332,0.2,1.0,100,0.01,CLR,,0.10,WeatherDisplay:10.37,2013-01-29 21:44:00,
2013-01-29 16:49:00,34.8,34.8,30.17,NNW,332,0.0,0.0,100,0.01,CLR,,0.10,WeatherDisplay:10.37,2013-01-29 21:49:00,
2013-01-29 16:54:00,34.7,34.7,30.18,NNW,332,0.0,0.0,100,0.01,CLR,,0.10,WeatherDisplay:10.37,2013-01-29 21:54:00,
2013-01-29 16:59:00,34.5,34.5,30.17,NNW,332,0.0,0.0,100,0.01,CLR,,0.10,WeatherDisplay:10.37,2013-01-29 21:59:00,
2013-01-29 17:04:00,34.4,34.4,30.17,NNW,332,0.0,0.0,100,0.01,CLR,,0.10,WeatherDisplay:10.37,2013-01-29 22:04:00,
2013-01-29 17:10:00,34.4,34.4,30.17,NNW,332,0.0,0.0,100,0.01,CLR,,0.10,WeatherDisplay:10.37,2013-01-29 22:10:00,
2013-01-29 17:15:00,34.4,34.4,30.17,NNW,332,0.0,0.0,100,0.01,CLR,,0.10,WeatherDisplay:10.37,2013-01-29 22:15:00,
2013-01-29 17:20:00,34.4,34.4,30.16,NNW,332,0.0,0.0,100,0.00,,,0.10,WeatherDisplay:10.37,2013-01-29 22:20:00,
2013-01-29 17:25:00,34.4,34.4,30.16,NNW,332,0.0,0.0,100,0.00,,,0.10,WeatherDisplay:10.37,2013-01-29 22:25:00,
2013-01-29 17:30:00,34.4,34.4,30.16,NNW,332,0.0,0.0,100,0.00,,,0.10,WeatherDisplay:10.37,2013-01-29 22:30:00,
2013-01-29 17:35:00,34.4,34.4,30.16,NNW,332,0.0,0.0,100,0.00,,,0.10,WeatherDisplay:10.37,2013-01-29 22:35:00,
2013-01-29 17:40:00,34.4,34.4,30.16,NNW,332,0.0,0.0,100,0.00,,,0.10,WeatherDisplay:10.37,2013-01-29 22:40:00,
2013-01-29 17:45:00,34.4,34.4,30.17,NNW,332,0.0,0.0,100,0.00,,,0.10,WeatherDisplay:10.37,2013-01-29 22:45:00,
2013-01-29 17:50:00,34.4,34.4,30.17,NNW,332,0.0,2.0,100,0.00,,,0.10,WeatherDisplay:10.37,2013-01-29 22:50:00,
2013-01-29 17:55:00,34.3,34.3,30.17,NNW,332,0.0,0.0,100,0.00,,,0.10,WeatherDisplay:10.37,2013-01-29 22:55:00,
2013-01-29 18:00:00,34.2,34.2,30.17,NNW,332,0.0,0.0,100,0.00,,,0.10,WeatherDisplay:10.37,2013-01-29 23:00:00,
2013-01-29 18:05:00,34.3,34.3,30.17,NNW,332,0.0,0.0,100,0.00,,,0.10,WeatherDisplay:10.37,2013-01-29 23:05:00,
2013-01-29 18:11:00,34.3,34.3,30.17,NNW,332,0.0,0.0,100,0.00,,,0.10,WeatherDisplay:10.37,2013-01-29 23:11:00,
2013-01-29 18:16:00,34.2,34.2,30.17,NNW,332,0.0,0.0,100,0.00,,,0.10,WeatherDisplay:10.37,2013-01-29 23:16:00,
2013-01-29 18:21:00,34.3,34.3,30.17,NNW,332,0.2,2.3,100,0.00,,,0.10,WeatherDisplay:10.37,2013-01-29 23:21:00,
2013-01-29 18:26:00,34.3,34.3,30.18,NNW,332,0.2,1.2,100,0.00,,,0.10,WeatherDisplay:10.37,2013-01-29 23:26:00,
2013-01-29 18:31:00,34.3,34.3,30.18,NNW,332,0.0,1.2,100,0.00,,,0.10,WeatherDisplay:10.37,2013-01-29 23:31:00,
2013-01-29 18:37:00,34.3,34.3,30.18,NNW,332,0.0,0.0,100,0.01,RA,,0.11,WeatherDisplay:10.37,2013-01-29 23:37:00,
2013-01-29 18:42:00,34.3,34.3,30.17,NNW,332,0.0,2.3,100,0.01,RA,,0.11,WeatherDisplay:10.37,2013-01-29 23:42:00,
2013-01-29 18:47:00,34.3,34.3,30.17,NNW,332,0.0,0.0,100,0.01,CLR,,0.11,WeatherDisplay:10.37,2013-01-29 23:47:00,
2013-01-29 18:52:00,34.3,34.3,30.17,NE,45,0.2,2.3,100,0.01,CLR,,0.11,WeatherDisplay:10.37,2013-01-29 23:52:00,
2013-01-29 18:58:00,34.3,34.3,30.18,NE,45,0.0,0.0,100,0.01,CLR,,0.11,WeatherDisplay:10.37,2013-01-29 23:58:00,
2013-01-29 19:03:00,34.2,34.2,30.18,NE,45,0.0,0.0,100,0.01,CLR,,0.11,WeatherDisplay:10.37,2013-01-30 00:03:00,
2013-01-29 19:08:00,34.2,34.2,30.18,NE,45,0.0,0.0,100,0.01,CLR,,0.11,WeatherDisplay:10.37,2013-01-30 00:08:00,
2013-01-29 19:14:00,34.2,34.2,30.17,NE,45,0.0,0.0,100,0.01,CLR,,0.11,WeatherDisplay:10.37,2013-01-30 00:14:00,
2013-01-29 19:19:00,34.1,34.1,30.17,NE,45,0.0,0.0,100,0.01,CLR,,0.11,WeatherDisplay:10.37,2013-01-30 00:19:00,
2013-01-29 19:24:00,34.1,34.1,30.16,NE,45,0.3,1.0,100,0.01,CLR,,0.11,WeatherDisplay:10.37,2013-01-30 00:24:00,
2013-01-29 19:29:00,34.1,34.1,30.16,NE,45,0.7,2.0,100,0.01,CLR,,0.11,WeatherDisplay:10.37,2013-01-30 00:29:00,
2013-01-29 19:34:00,34.1,34.1,30.17,NE,45,0.6,2.3,100,0.00,,,0.11,WeatherDisplay:10.37,2013-01-30 00:34:00,
2013-01-29 19:40:00,34.1,34.1,30.17,NE,45,0.0,1.2,100,0.00,,,0.11,WeatherDisplay:10.37,2013-01-30 00:40:00,
2013-01-29 19:45:00,34.2,34.2,30.17,NE,45,0.1,1.0,100,0.00,,,0.11,WeatherDisplay:10.37,2013-01-30 00:45:00,
2013-01-29 19:50:00,34.2,34.2,30.17,NE,45,0.0,1.2,100,0.00,,,0.11,WeatherDisplay:10.37,2013-01-30 00:50:00,
2013-01-29 19:55:00,34.3,34.3,30.18,NE,45,0.0,0.0,100,0.00,,,0.11,WeatherDisplay:10.37,2013-01-30 00:55:00,
2013-01-29 20:00:00,34.3,34.3,30.17,NE,45,0.0,0.0,100,0.00,,,0.11,WeatherDisplay:10.37,2013-01-30 01:00:00,
2013-01-29 20:05:00,34.2,34.2,30.18,NE,45,0.0,0.0,100,0.00,,,0.11,WeatherDisplay:10.37,2013-01-30 01:05:00,
2013-01-29 20:10:00,34.2,34.2,30.17,NE,45,0.0,1.0,100,0.00,,,0.11,WeatherDisplay:10.37,2013-01-30 01:10:00,
2013-01-29 20:15:00,34.3,34.3,30.17,NE,45,0.0,2.0,100,0.00,,,0.11,WeatherDisplay:10.37,2013-01-30 01:15:00,
2013-01-29 20:20:00,34.3,34.3,30.17,NE,45,0.0,1.0,100,0.01,RA,RA,0.12,WeatherDisplay:10.37,2013-01-30 01:20:00,
2013-01-29 20:25:00,34.3,34.3,30.18,NE,45,0.0,2.0,100,0.00,RA,RA,0.12,WeatherDisplay:10.37,2013-01-30 01:25:00,
2013-01-29 20:30:00,34.3,34.3,30.18,NE,45,0.0,2.0,100,0.00,,,0.12,WeatherDisplay:10.37,2013-01-30 01:30:00,
2013-01-29 20:35:00,34.3,34.3,30.18,NE,45,0.0,0.0,100,0.00,CLR,CLR,0.12,WeatherDisplay:10.37,2013-01-30 01:35:00,
2013-01-29 20:40:00,34.3,34.3,30.17,NE,45,0.0,0.0,100,0.00,CLR,CLR,0.12,WeatherDisplay:10.37,2013-01-30 01:40:00,
2013-01-29 20:45:00,34.3,34.3,30.18,NE,45,0.0,0.0,100,0.01,CLR,,0.12,WeatherDisplay:10.37,2013-01-30 01:45:00,
2013-01-29 20:50:00,34.3,34.3,30.18,NE,45,0.0,0.0,100,0.00,CLR,CLR,0.12,WeatherDisplay:10.37,2013-01-30 01:50:00,
2013-01-29 20:55:00,34.3,34.3,30.18,NE,45,0.0,0.0,100,0.00,CLR,CLR,0.12,WeatherDisplay:10.37,2013-01-30 01:55:00,
2013-01-29 21:00:00,34.3,34.3,30.19,NE,45,1.0,3.0,100,0.00,CLR,CLR,0.12,WeatherDisplay:10.37,2013-01-30 02:00:00,
2013-01-29 21:05:00,34.3,34.3,30.19,NE,54,2.0,3.0,100,0.00,CLR,CLR,0.12,WeatherDisplay:10.37,2013-01-30 02:05:00,
2013-01-29 21:10:00,34.3,34.3,30.19,SSW,211,1.0,4.0,100,0.00,CLR,CLR,0.12,WeatherDisplay:10.37,2013-01-30 02:10:00,
2013-01-29 21:15:00,34.3,34.3,30.18,SW,216,0.0,2.0,100,0.00,CLR,CLR,0.12,WeatherDisplay:10.37,2013-01-30 02:15:00,
2013-01-29 21:20:00,34.3,34.3,30.18,SW,216,0.0,1.2,100,0.00,,,0.12,WeatherDisplay:10.37,2013-01-30 02:20:00,
2013-01-29 21:25:00,34.3,34.3,30.18,SW,216,0.0,2.0,100,0.00,,,0.12,WeatherDisplay:10.37,2013-01-30 02:25:00,
2013-01-29 21:30:00,34.4,34.4,30.17,SW,216,0.0,2.0,100,0.00,,,0.12,WeatherDisplay:10.37,2013-01-30 02:30:00,
2013-01-29 21:35:00,34.4,34.4,30.17,SW,216,0.0,1.0,100,0.00,,,0.12,WeatherDisplay:10.37,2013-01-30 02:35:00,
2013-01-29 21:40:00,34.4,34.4,30.17,SW,216,0.0,1.0,100,0.00,,,0.12,WeatherDisplay:10.37,2013-01-30 02:40:00,
2013-01-29 21:45:00,34.4,34.4,30.16,SW,216,0.0,1.0,100,0.00,,,0.12,WeatherDisplay:10.37,2013-01-30 02:45:00,
2013-01-29 21:50:00,34.3,34.3,30.16,SW,216,0.0,0.0,100,0.00,,,0.12,WeatherDisplay:10.37,2013-01-30 02:50:00,
2013-01-29 21:55:00,34.3,34.3,30.17,SW,216,0.0,0.0,100,0.00,,,0.12,WeatherDisplay:10.37,2013-01-30 02:55:00,
2013-01-29 22:00:00,34.3,34.3,30.17,SW,216,0.0,0.0,100,0.00,,,0.12,WeatherDisplay:10.37,2013-01-30 03:00:00,
2013-01-29 22:05:00,34.2,34.2,30.17,SW,216,0.0,0.0,100,0.00,RA,RA,0.13,WeatherDisplay:10.37,2013-01-30 03:05:00,
2013-01-29 22:10:00,34.2,34.2,30.17,SW,216,0.0,2.0,100,0.00,RA,RA,0.13,WeatherDisplay:10.37,2013-01-30 03:10:00,
2013-01-29 22:15:00,34.2,34.2,30.17,SW,216,0.0,2.0,100,0.00,CLR,CLR,0.13,WeatherDisplay:10.37,2013-01-30 03:15:00,
2013-01-29 22:20:00,34.2,34.2,30.16,SW,216,0.0,0.0,100,0.00,CLR,CLR,0.13,WeatherDisplay:10.37,2013-01-30 03:20:00,
2013-01-29 22:26:00,34.2,34.2,30.16,SW,216,0.2,2.0,100,0.01,CLR,,0.13,WeatherDisplay:10.37,2013-01-30 03:26:00,
2013-01-29 22:31:00,34.1,34.1,30.14,ESE,120,0.7,2.3,100,0.01,CLR,,0.13,WeatherDisplay:10.37,2013-01-30 03:31:00,
2013-01-29 22:36:00,34.2,34.2,30.14,ESE,120,0.8,3.5,100,0.01,CLR,,0.13,WeatherDisplay:10.37,2013-01-30 03:36:00,
2013-01-29 22:41:00,34.2,34.2,30.14,ESE,120,0.2,3.5,100,0.01,CLR,,0.13,WeatherDisplay:10.37,2013-01-30 03:41:00,
2013-01-29 22:46:00,34.2,34.2,30.14,ESE,120,0.0,2.3,100,0.01,CLR,,0.13,WeatherDisplay:10.37,2013-01-30 03:46:00,
2013-01-29 22:52:00,34.2,34.2,30.14,ESE,120,0.8,2.3,100,0.01,CLR,,0.13,WeatherDisplay:10.37,2013-01-30 03:52:00,
2013-01-29 22:57:00,34.2,34.2,30.14,ESE,120,0.0,0.0,100,0.01,CLR,,0.13,WeatherDisplay:10.37,2013-01-30 03:57:00,
2013-01-29 23:02:00,34.2,34.2,30.15,ESE,120,0.0,0.0,100,0.01,CLR,,0.13,WeatherDisplay:10.37,2013-01-30 04:02:00,
2013-01-29 23:07:00,34.3,34.3,30.15,ESE,120,0.0,0.0,100,0.00,,,0.13,WeatherDisplay:10.37,2013-01-30 04:07:00,
2013-01-29 23:12:00,34.2,34.2,30.15,ESE,120,0.0,0.0,100,0.01,RA,,0.14,WeatherDisplay:10.37,2013-01-30 04:12:00,
2013-01-29 23:18:00,34.2,34.2,30.15,ESE,120,0.0,0.0,100,0.01,RA,,0.14,WeatherDisplay:10.37,2013-01-30 04:18:00,
2013-01-29 23:23:00,34.3,34.3,30.15,ESE,120,0.0,0.0,100,0.01,,,0.14,WeatherDisplay:10.37,2013-01-30 04:23:00,
2013-01-29 23:28:00,34.2,34.2,30.14,ESE,120,0.2,1.2,100,0.01,CLR,,0.14,WeatherDisplay:10.37,2013-01-30 04:28:00,
2013-01-29 23:33:00,34.2,34.2,30.15,ESE,120,0.0,0.0,100,0.01,CLR,,0.14,WeatherDisplay:10.37,2013-01-30 04:33:00,
2013-01-29 23:38:00,34.1,34.1,30.15,ESE,120,0.8,2.3,100,0.01,CLR,,0.14,WeatherDisplay:10.37,2013-01-30 04:38:00,
2013-01-29 23:43:00,34.1,34.1,30.15,ESE,120,0.5,2.3,100,0.01,CLR,,0.14,WeatherDisplay:10.37,2013-01-30 04:43:00,
2013-01-29 23:49:00,34.2,34.2,30.14,ESE,120,2.0,3.5,100,0.01,CLR,,0.14,WeatherDisplay:10.37,2013-01-30 04:49:00,
2013-01-29 23:54:00,34.2,34.2,30.15,ESE,120,0.0,1.2,100,0.01,CLR,,0.14,WeatherDisplay:10.37,2013-01-30 04:54:00,
2013-01-29 23:59:00,34.2,34.2,30.15,ESE,120,0.0,1.2,100,0.01,CLR,,0.14,WeatherDisplay:10.37,2013-01-30 04:59:00,